createdAt,value
2018-02-22T00:08:53.960Z,102673
2018-02-22T00:17:17.085Z,102660
2018-02-22T00:19:45.239Z,102669
2018-02-22T00:22:18.972Z,102661
2018-02-22T00:24:47.211Z,102669
2018-02-22T00:27:16.187Z,102668
2018-02-22T00:29:44.329Z,102674
2018-02-22T00:32:12.611Z,102675
2018-02-22T00:34:40.763Z,102667
2018-02-22T00:37:08.993Z,102669
2018-02-22T00:39:37.901Z,102663
2018-02-22T00:42:06.826Z,102659
2018-02-22T00:44:34.995Z,102657
2018-02-22T00:47:03.154Z,102658
2018-02-22T00:49:31.302Z,102657
2018-02-22T00:52:00.320Z,102663
2018-02-22T00:54:28.503Z,102656
2018-02-22T00:56:56.643Z,102651
2018-02-22T00:59:25.658Z,102650
2018-02-22T01:01:54.660Z,102650
2018-02-22T01:04:22.864Z,102647
2018-02-22T01:06:51.034Z,102644
2018-02-22T01:09:19.995Z,102644
2018-02-22T01:11:48.159Z,102648
2018-02-22T01:14:16.316Z,102633
2018-02-22T01:16:44.482Z,102640
2018-02-22T01:19:12.674Z,102640
2018-02-22T01:21:40.827Z,102642
2018-02-22T01:24:09.859Z,102630
2018-02-22T01:26:38.019Z,102631
2018-02-22T01:29:06.207Z,102642
2018-02-22T01:31:34.449Z,102633
2018-02-22T01:34:02.712Z,102628
2018-02-22T01:36:31.945Z,102631
2018-02-22T01:39:00.109Z,102630
2018-02-22T01:41:28.406Z,102632
2018-02-22T01:43:56.565Z,102623
2018-02-22T01:46:24.742Z,102638
2018-02-22T01:48:52.950Z,102630
2018-02-22T01:51:21.122Z,102633
2018-02-22T01:53:49.325Z,102638
2018-02-22T01:56:18.264Z,102625
2018-02-22T01:58:46.418Z,102623
2018-02-22T02:01:14.571Z,102626
2018-02-22T02:03:42.755Z,102622
2018-02-22T02:06:11.077Z,102619
2018-02-22T02:08:39.284Z,102618
2018-02-22T02:11:08.327Z,102622
2018-02-22T02:13:36.531Z,102617
2018-02-22T02:16:04.666Z,102610
2018-02-22T02:18:32.830Z,102614
2018-02-22T02:21:00.984Z,102609
2018-02-22T02:23:29.130Z,102608
2018-02-22T02:25:58.043Z,102618
2018-02-22T02:28:34.040Z,102619
2018-02-22T02:31:02.231Z,102613
2018-02-22T02:33:30.403Z,102621
2018-02-22T02:35:58.560Z,102616
2018-02-22T02:38:26.781Z,102620
2018-02-22T02:40:55.702Z,102614
2018-02-22T02:43:23.864Z,102611
2018-02-22T02:45:52.036Z,102607
2018-02-22T02:48:20.197Z,102610
2018-02-22T02:50:48.349Z,102615
2018-02-22T02:53:17.295Z,102612
2018-02-22T02:55:45.449Z,102611
2018-02-22T02:58:13.593Z,102604
2018-02-22T03:00:42.532Z,102610
2018-02-22T03:03:10.669Z,102611
2018-02-22T03:05:39.581Z,102612
2018-02-22T03:08:07.771Z,102608
2018-02-22T03:10:35.900Z,102607
2018-02-22T03:13:04.825Z,102597
2018-02-22T03:15:33.014Z,102588
2018-02-22T03:18:01.157Z,102585
2018-02-22T03:20:29.308Z,102585
2018-02-22T03:22:57.464Z,102580
2018-02-22T03:25:26.454Z,102579
2018-02-22T03:27:55.386Z,102588
2018-02-22T03:30:23.602Z,102585
2018-02-22T03:32:51.746Z,102595
2018-02-22T03:35:19.947Z,102597
2018-02-22T03:37:48.146Z,102600
2018-02-22T03:40:17.067Z,102602
2018-02-22T03:42:45.275Z,102608
2018-02-22T03:45:13.425Z,102605
2018-02-22T03:47:41.573Z,102606
2018-02-22T03:50:09.715Z,102615
2018-02-22T03:52:37.888Z,102611
2018-02-22T03:55:06.818Z,102608
2018-02-22T03:57:34.977Z,102614
2018-02-22T04:00:03.905Z,102612
2018-02-22T04:02:32.066Z,102610
2018-02-22T04:05:00.256Z,102602
2018-02-22T04:07:28.469Z,102611
2018-02-22T04:09:57.373Z,102596
2018-02-22T04:12:26.324Z,102597
2018-02-22T04:14:54.465Z,102607
2018-02-22T04:17:22.639Z,102609
2018-02-22T04:19:50.790Z,102609
2018-02-22T04:22:19.029Z,102615
2018-02-22T04:24:47.178Z,102608
2018-02-22T04:27:15.319Z,102620
2018-02-22T04:29:43.494Z,102613
2018-02-22T04:32:11.788Z,102610
2018-02-22T04:34:39.955Z,102616
2018-02-22T04:37:08.112Z,102616
2018-02-22T04:39:36.300Z,102618
2018-02-22T04:42:04.437Z,102623
2018-02-22T04:44:33.378Z,102619
2018-02-22T04:47:01.535Z,102620
2018-02-22T04:49:29.700Z,102622
2018-02-22T04:51:57.880Z,102618
2018-02-22T04:54:26.028Z,102614
2018-02-22T04:56:54.189Z,102621
2018-02-22T04:59:22.560Z,102624
2018-02-22T05:01:51.560Z,102620
2018-02-22T05:04:20.482Z,102620
2018-02-22T05:06:48.708Z,102621
2018-02-22T05:09:16.914Z,102620
2018-02-22T05:11:45.075Z,102625
2018-02-22T05:14:14.045Z,102609
2018-02-22T05:16:42.159Z,102608
2018-02-22T05:19:10.338Z,102615
2018-02-22T05:21:38.480Z,102607
2018-02-22T05:24:07.451Z,102606
2018-02-22T05:26:35.610Z,102609
2018-02-22T05:29:03.767Z,102615
2018-02-22T05:31:32.074Z,102610
2018-02-22T05:34:00.238Z,102604
2018-02-22T05:36:28.450Z,102604
2018-02-22T05:38:56.615Z,102607
2018-02-22T05:41:25.635Z,102605
2018-02-22T05:43:54.558Z,102598
2018-02-22T05:46:22.762Z,102600
2018-02-22T05:48:51.696Z,102607
2018-02-22T05:51:19.840Z,102606
2018-02-22T05:53:48.807Z,102602
2018-02-22T05:56:17.062Z,102602
2018-02-22T05:58:45.297Z,102606
2018-02-22T06:01:13.519Z,102604
2018-02-22T06:03:41.710Z,102606
2018-02-22T06:06:10.674Z,102604
2018-02-22T06:08:38.841Z,102610
2018-02-22T06:11:06.985Z,102609
2018-02-22T06:13:35.191Z,102607
2018-02-22T06:16:03.326Z,102611
2018-02-22T06:18:32.494Z,102601
2018-02-22T06:21:01.454Z,102609
2018-02-22T06:23:29.645Z,102608
2018-02-22T06:25:57.829Z,102614
2018-02-22T06:28:26.047Z,102604
2018-02-22T06:30:54.188Z,102611
2018-02-22T06:33:23.085Z,102611
2018-02-22T06:35:51.234Z,102616
2018-02-22T06:38:20.198Z,102604
2018-02-22T06:40:48.357Z,102614
2018-02-22T06:43:16.534Z,102613
2018-02-22T06:45:44.742Z,102609
2018-02-22T06:48:12.965Z,102616
2018-02-22T06:50:41.120Z,102616
2018-02-22T06:53:09.307Z,102617
2018-02-22T06:55:38.291Z,102608
2018-02-22T06:58:06.467Z,102611
2018-02-22T07:00:34.730Z,102614
2018-02-22T07:03:02.892Z,102621
2018-02-22T07:05:31.040Z,102624
2018-02-22T07:07:59.292Z,102621
2018-02-22T07:10:27.911Z,102620
2018-02-22T07:12:56.844Z,102614
2018-02-22T07:15:25.200Z,102614
2018-02-22T07:17:58.800Z,102618
2018-02-22T07:20:27.062Z,102615
2018-02-22T07:22:56.149Z,102618
2018-02-22T07:25:24.481Z,102619
2018-02-22T07:27:52.662Z,102623
2018-02-22T07:30:21.672Z,102618
2018-02-22T07:32:49.834Z,102611
2018-02-22T07:35:18.039Z,102614
2018-02-22T07:37:47.006Z,102620
2018-02-22T07:40:15.156Z,102610
2018-02-22T07:42:43.396Z,102619
2018-02-22T07:45:11.711Z,102624
2018-02-22T07:47:39.872Z,102624
2018-02-22T07:50:08.043Z,102616
2018-02-22T07:52:36.206Z,102630
2018-02-22T07:55:04.401Z,102621
2018-02-22T07:57:32.568Z,102620
2018-02-22T08:00:01.547Z,102627
2018-02-22T08:02:29.650Z,102628
2018-02-22T08:04:57.805Z,102632
2018-02-22T08:07:26.172Z,102629
2018-02-22T08:09:54.319Z,102630
2018-02-22T08:12:22.475Z,102623
2018-02-22T08:14:51.441Z,102628
2018-02-22T08:17:19.673Z,102634
2018-02-22T08:19:47.910Z,102635
2018-02-22T08:22:16.920Z,102632
2018-02-22T08:24:45.103Z,102629
2018-02-22T08:27:13.253Z,102622
2018-02-22T08:29:42.166Z,102626
2018-02-22T08:32:10.440Z,102628
2018-02-22T08:34:38.592Z,102630
2018-02-22T08:37:07.562Z,102628
2018-02-22T08:39:36.772Z,102634
2018-02-22T08:42:06.239Z,102634
2018-02-22T08:44:41.044Z,102635
2018-02-22T08:47:11.145Z,102645
2018-02-22T08:49:39.722Z,102641
2018-02-22T08:52:07.966Z,102639
2018-02-22T08:54:36.144Z,102643
2018-02-22T08:57:04.297Z,102642
2018-02-22T08:59:33.216Z,102639
2018-02-22T09:02:02.136Z,102631
2018-02-22T09:04:30.286Z,102634
2018-02-22T09:06:59.220Z,102632
2018-02-22T09:09:27.375Z,102642
2018-02-22T09:11:55.629Z,102641
2018-02-22T09:14:24.626Z,102647
2018-02-22T09:16:53.572Z,102648
2018-02-22T09:19:21.760Z,102648
2018-02-22T09:21:49.897Z,102641
2018-02-22T09:24:18.075Z,102645
2018-02-22T09:26:46.255Z,102645
2018-02-22T09:29:14.446Z,102642
2018-02-22T09:31:42.690Z,102634
2018-02-22T09:34:10.828Z,102639
2018-02-22T09:36:39.782Z,102640
2018-02-22T09:39:07.922Z,102641
2018-02-22T09:41:36.067Z,102643
2018-02-22T09:44:04.239Z,102642
2018-02-22T09:46:35.028Z,102638
2018-02-22T09:49:03.295Z,102634
2018-02-22T09:51:31.455Z,102638
2018-02-22T09:54:02.834Z,102639
2018-02-22T09:56:32.627Z,102641
2018-02-22T09:59:04.077Z,102634
2018-02-22T10:01:33.454Z,102640
2018-02-22T10:04:01.660Z,102641
2018-02-22T10:06:29.823Z,102645
2018-02-22T10:08:58.769Z,102646
2018-02-22T10:11:27.050Z,102646
2018-02-22T10:13:55.291Z,102649
2018-02-22T10:16:23.560Z,102646
2018-02-22T10:18:53.900Z,102647
2018-02-22T10:21:22.130Z,102644
2018-02-22T10:23:51.747Z,102645
2018-02-22T10:26:21.705Z,102639
2018-02-22T10:28:50.790Z,102648
2018-02-22T10:31:19.166Z,102635
2018-02-22T10:33:49.210Z,102631
2018-02-22T10:36:18.462Z,102632
2018-02-22T10:38:47.530Z,102639
2018-02-22T10:41:17.359Z,102632
2018-02-22T10:43:45.580Z,102634
2018-02-22T10:46:14.671Z,102631
2018-02-22T10:48:43.705Z,102628
2018-02-22T10:51:11.939Z,102632
2018-02-22T10:53:41.799Z,102627
2018-02-22T10:56:11.158Z,102626
2018-02-22T10:58:39.340Z,102626
2018-02-22T11:01:13.303Z,102624
2018-02-22T11:03:41.611Z,102626
2018-02-22T11:06:09.922Z,102631
2018-02-22T11:08:38.082Z,102628
2018-02-22T11:11:06.333Z,102628
2018-02-22T11:13:35.237Z,102627
2018-02-22T11:16:04.462Z,102625
2018-02-22T11:18:33.873Z,102622
2018-02-22T11:21:02.092Z,102614
2018-02-22T11:23:31.070Z,102613
2018-02-22T11:26:00.086Z,102619
2018-02-22T11:28:28.306Z,102620
2018-02-22T11:30:56.505Z,102619
2018-02-22T11:33:24.836Z,102619
2018-02-22T11:35:57.170Z,102616
2018-02-22T11:38:26.903Z,102614
2018-02-22T11:40:55.933Z,102609
2018-02-22T11:43:24.136Z,102624
2018-02-22T11:45:55.152Z,102617
2018-02-22T11:48:27.262Z,102622
2018-02-22T11:50:56.210Z,102620
2018-02-22T11:58:12.340Z,102612
2018-02-22T12:00:41.739Z,102616
2018-02-22T12:03:12.485Z,102609
2018-02-22T12:08:35.951Z,102605
2018-02-22T12:11:04.299Z,102602
2018-02-22T12:13:33.749Z,102607
2018-02-22T12:16:03.037Z,102606
2018-02-22T12:18:32.346Z,102612
2018-02-22T12:21:00.573Z,102608
2018-02-22T12:23:29.816Z,102603
2018-02-22T12:25:58.810Z,102602
2018-02-22T12:28:30.073Z,102593
2018-02-22T12:30:59.228Z,102592
2018-02-22T12:33:27.575Z,102594
2018-02-22T12:35:56.854Z,102591
2018-02-22T12:38:27.430Z,102589
2018-02-22T12:40:56.335Z,102581
2018-02-22T12:43:24.517Z,102580
2018-02-22T12:45:53.826Z,102573
2018-02-22T12:48:22.774Z,102568
2018-02-22T12:50:50.934Z,102580
2018-02-22T12:53:20.161Z,102578
2018-02-22T12:55:48.411Z,102577
2018-02-22T12:58:17.369Z,102565
2018-02-22T13:00:45.551Z,102575
2018-02-22T13:03:13.707Z,102575
2018-02-22T13:05:43.165Z,102565
2018-02-22T13:08:11.333Z,102568
2018-02-22T13:10:39.560Z,102563
2018-02-22T13:13:07.718Z,102555
2018-02-22T13:15:35.863Z,102551
2018-02-22T13:18:04.675Z,102560
2018-02-22T13:20:32.871Z,102555
2018-02-22T13:23:01.129Z,102548
2018-02-22T13:25:29.277Z,102543
2018-02-22T13:27:57.582Z,102546
2018-02-22T13:30:25.722Z,102540
2018-02-22T13:33:11.635Z,102545
2018-02-22T13:35:40.651Z,102544
2018-02-22T13:41:16.918Z,102543
2018-02-22T13:43:47.959Z,102540
2018-02-22T13:46:16.912Z,102538
2018-02-22T13:49:02.822Z,102539
2018-02-22T13:51:31.772Z,102543
2018-02-22T13:54:00.750Z,102543
2018-02-22T13:56:46.758Z,102539
2018-02-22T13:59:15.029Z,102543
2018-02-22T14:02:00.902Z,102530
2018-02-22T14:04:29.121Z,102527
2018-02-22T14:06:57.329Z,102533
2018-02-22T14:09:25.522Z,102527
2018-02-22T14:11:53.756Z,102520
2018-02-22T14:14:21.933Z,102525
2018-02-22T14:16:50.126Z,102530
2018-02-22T14:19:18.361Z,102520
2018-02-22T14:21:46.548Z,102512
2018-02-22T14:24:17.202Z,102514
2018-02-22T14:26:45.399Z,102511
2018-02-22T14:29:13.607Z,102514
2018-02-22T14:31:41.813Z,102519
2018-02-22T14:34:10.005Z,102520
2018-02-22T14:36:39.349Z,102515
2018-02-22T14:39:07.524Z,102511
2018-02-22T14:41:35.782Z,102507
2018-02-22T14:44:03.968Z,102510
2018-02-22T14:46:32.271Z,102515
2018-02-22T14:49:01.510Z,102508
2018-02-22T14:51:29.706Z,102512
2018-02-22T14:53:57.908Z,102513
2018-02-22T14:56:26.146Z,102515
2018-02-22T14:58:54.399Z,102520
2018-02-22T15:01:22.599Z,102520
2018-02-22T15:03:51.044Z,102518
2018-02-22T15:06:19.306Z,102514
2018-02-22T15:08:48.244Z,102499
2018-02-22T15:11:16.442Z,102499
2018-02-22T15:13:44.619Z,102506
2018-02-22T15:16:12.900Z,102491
2018-02-22T15:18:41.093Z,102506
2018-02-22T15:21:10.073Z,102505
2018-02-22T15:23:38.261Z,102508
2018-02-22T15:26:07.196Z,102505
2018-02-22T15:28:35.510Z,102496
2018-02-22T15:31:04.438Z,102499
2018-02-22T15:33:32.621Z,102498
2018-02-22T15:36:00.928Z,102496
2018-02-22T15:38:29.141Z,102494
2018-02-22T15:40:58.179Z,102498
2018-02-22T15:43:26.361Z,102504
2018-02-22T15:45:54.550Z,102492
2018-02-22T15:48:22.835Z,102505
2018-02-22T15:50:50.999Z,102506
2018-02-22T15:53:19.253Z,102501
2018-02-22T15:55:47.407Z,102507
2018-02-22T15:58:15.584Z,102500
2018-02-22T16:00:43.838Z,102497
2018-02-22T16:03:12.036Z,102502
2018-02-22T16:05:40.352Z,102504
2018-02-22T16:08:08.568Z,102497
2018-02-22T16:10:36.822Z,102501
2018-02-22T16:13:05.814Z,102498
2018-02-22T16:15:34.835Z,102504
2018-02-22T16:18:03.114Z,102495
2018-02-22T16:20:31.323Z,102493
2018-02-22T16:23:00.192Z,102496
2018-02-22T16:25:36.790Z,102502
2018-02-22T16:28:05.997Z,102496
2018-02-22T16:30:34.391Z,102506
2018-02-22T16:33:08.308Z,102512
2018-02-22T16:35:36.730Z,102517
2018-02-22T16:38:05.249Z,102520
2018-02-22T16:40:38.670Z,102510
2018-02-22T16:43:07.316Z,102512
2018-02-22T16:45:35.704Z,102505
2018-02-22T16:48:14.009Z,102504
2018-02-22T16:50:42.278Z,102506
2018-02-22T16:53:10.466Z,102500
2018-02-22T16:55:39.405Z,102508
2018-02-22T16:58:07.622Z,102513
2018-02-22T17:00:42.133Z,102505
2018-02-22T17:03:10.464Z,102506
2018-02-22T17:05:38.626Z,102507
2018-02-22T17:08:07.052Z,102509
2018-02-22T17:10:35.261Z,102509
2018-02-22T17:13:04.185Z,102496
2018-02-22T17:15:32.505Z,102507
2018-02-22T17:18:07.301Z,102501
2018-02-22T17:20:36.522Z,102506
2018-02-22T17:23:05.474Z,102503
2018-02-22T17:25:33.087Z,102512
2018-02-22T17:28:06.688Z,102514
2018-02-22T17:30:40.488Z,102515
2018-02-22T17:33:08.658Z,102510
2018-02-22T17:35:42.304Z,102513
2018-02-22T17:38:26.354Z,102520
2018-02-22T17:40:55.317Z,102517
2018-02-22T17:43:24.345Z,102524
2018-02-22T17:45:52.660Z,102522
2018-02-22T17:48:21.721Z,102517
2018-02-22T17:50:49.935Z,102521
2018-02-22T17:53:18.171Z,102518
2018-02-22T17:55:46.490Z,102516
2018-02-22T17:58:14.642Z,102526
2018-02-22T18:00:42.803Z,102519
2018-02-22T18:03:11.115Z,102524
2018-02-22T18:05:39.302Z,102522
2018-02-22T18:08:08.243Z,102530
2018-02-22T18:10:36.434Z,102536
2018-02-22T18:13:05.133Z,102530
2018-02-22T18:15:34.175Z,102530
2018-02-22T18:18:02.473Z,102534
2018-02-22T18:20:30.665Z,102535
2018-02-22T18:22:58.875Z,102532
2018-02-22T18:25:28.247Z,102538
2018-02-22T18:27:56.458Z,102547
2018-02-22T18:30:24.714Z,102549
2018-02-22T18:32:54.664Z,102551
2018-02-22T18:35:22.903Z,102544
2018-02-22T18:37:57.220Z,102552
2018-02-22T18:40:31.710Z,102559
2018-02-22T18:42:59.878Z,102554
2018-02-22T18:45:28.168Z,102560
2018-02-22T18:47:56.311Z,102558
2018-02-22T18:50:24.507Z,102556
2018-02-22T18:52:52.671Z,102559
2018-02-22T18:55:20.859Z,102554
2018-02-22T18:57:49.018Z,102556
2018-02-22T19:00:17.193Z,102560
2018-02-22T19:02:46.221Z,102552
2018-02-22T19:05:15.142Z,102547
2018-02-22T19:07:43.296Z,102544
2018-02-22T19:10:11.426Z,102550
2018-02-22T19:12:39.685Z,102550
2018-02-22T19:15:07.883Z,102548
2018-02-22T19:17:36.056Z,102537
2018-02-22T19:20:04.213Z,102533
2018-02-22T19:22:32.485Z,102533
2018-02-22T19:25:00.787Z,102529
2018-02-22T19:27:29.736Z,102539
2018-02-22T19:29:57.908Z,102530
2018-02-22T19:32:26.107Z,102532
2018-02-22T19:34:54.287Z,102529
2018-02-22T19:37:22.476Z,102528
2018-02-22T19:39:50.749Z,102533
2018-02-22T19:42:18.894Z,102523
2018-02-22T19:44:47.062Z,102524
2018-02-22T19:47:15.263Z,102518
2018-02-22T19:49:44.231Z,102521
2018-02-22T19:52:12.418Z,102520
2018-02-22T19:54:40.626Z,102521
2018-02-22T19:57:09.594Z,102526
2018-02-22T19:59:37.793Z,102520
2018-02-22T20:02:05.983Z,102516
2018-02-22T20:04:34.193Z,102520
2018-02-22T20:07:04.419Z,102522
2018-02-22T20:09:32.780Z,102520
2018-02-22T20:12:01.701Z,102520
2018-02-22T20:14:30.030Z,102510
2018-02-22T20:16:59.179Z,102521
2018-02-22T20:19:28.312Z,102511
2018-02-22T20:21:57.230Z,102513
2018-02-22T20:24:25.466Z,102502
2018-02-22T20:26:54.496Z,102508
2018-02-22T20:29:24.504Z,102521
2018-02-22T20:31:52.713Z,102517
2018-02-22T20:34:20.888Z,102508
2018-02-22T20:36:49.077Z,102515
2018-02-22T20:39:19.770Z,102518
2018-02-22T20:41:49.984Z,102522
2018-02-22T20:44:20.603Z,102519
2018-02-22T20:46:48.924Z,102520
2018-02-22T20:49:17.141Z,102520
2018-02-22T20:51:49.983Z,102514
2018-02-22T20:54:19.001Z,102524
2018-02-22T20:56:48.112Z,102529
2018-02-22T20:59:20.498Z,102529
2018-02-22T21:01:49.655Z,102532
2018-02-22T21:04:18.944Z,102527
2018-02-22T21:06:48.496Z,102527
2018-02-22T21:09:16.738Z,102534
2018-02-22T21:11:45.699Z,102523
2018-02-22T21:14:14.822Z,102529
2018-02-22T21:16:43.848Z,102532
2018-02-22T21:19:13.186Z,102525
2018-02-22T21:21:41.380Z,102528
2018-02-22T21:24:10.350Z,102520
2018-02-22T21:26:38.528Z,102526
2018-02-22T21:29:06.689Z,102526
2018-02-22T21:31:34.895Z,102531
2018-02-22T21:34:03.798Z,102525
2018-02-22T21:36:32.635Z,102527
2018-02-22T21:39:00.930Z,102529
2018-02-22T21:41:29.114Z,102527
2018-02-22T21:43:58.362Z,102535
2018-02-22T21:46:27.948Z,102532
2018-02-22T21:48:56.203Z,102531
2018-02-22T21:51:24.421Z,102528
2018-02-22T21:53:54.723Z,102526
2018-02-22T21:56:22.887Z,102532
2018-02-22T21:58:52.617Z,102530
2018-02-22T22:01:25.805Z,102542
2018-02-22T22:03:56.292Z,102533
2018-02-22T22:06:26.143Z,102535
2018-02-22T22:08:56.747Z,102532
2018-02-22T22:11:26.640Z,102538
2018-02-22T22:13:55.975Z,102538
2018-02-22T22:16:25.916Z,102534
2018-02-22T22:18:56.085Z,102539
2018-02-22T22:21:25.050Z,102542
2018-02-22T22:23:53.739Z,102547
2018-02-22T22:26:24.283Z,102546
2018-02-22T22:28:53.317Z,102544
2018-02-22T22:31:22.647Z,102535
2018-02-22T22:33:50.860Z,102545
2018-02-22T22:36:19.083Z,102542
2018-02-22T22:38:47.442Z,102539
2018-02-22T22:41:16.475Z,102534
2018-02-22T22:43:46.565Z,102531
2018-02-22T22:46:16.266Z,102538
2018-02-22T22:48:45.161Z,102534
2018-02-22T22:51:13.394Z,102538
2018-02-22T22:53:42.563Z,102533
2018-02-22T22:56:11.134Z,102531
2018-02-22T22:58:40.913Z,102528
2018-02-22T23:01:09.225Z,102532
2018-02-22T23:03:38.546Z,102533
2018-02-22T23:06:08.585Z,102533
2018-02-22T23:08:37.596Z,102533
2018-02-22T23:11:06.667Z,102551
2018-02-22T23:13:34.863Z,102538
2018-02-22T23:16:04.370Z,102531
2018-02-22T23:18:34.276Z,102535
2018-02-22T23:21:02.465Z,102532
2018-02-22T23:23:30.617Z,102542
2018-02-22T23:25:58.802Z,102532
2018-02-22T23:28:26.989Z,102533
2018-02-22T23:30:55.140Z,102535
2018-02-22T23:33:23.414Z,102529
2018-02-22T23:35:51.569Z,102536
2018-02-22T23:38:19.745Z,102533
2018-02-22T23:40:49.621Z,102528
2018-02-22T23:43:17.806Z,102526
2018-02-22T23:45:45.970Z,102532
2018-02-22T23:48:14.117Z,102535
2018-02-22T23:50:42.275Z,102534
2018-02-22T23:53:10.418Z,102539
2018-02-22T23:55:39.328Z,102535
2018-02-22T23:58:07.493Z,102531
